Wetterstation Vordersexau
Wetterdaten: Woche 01.12.14 - 07.12.14 (KW49)
Datum Zeit Temp. A. Feuchte A. Luftdruck Regen Wind Richtung Taupunkt Windchill Windben
01.12.2014 00:00 2,9 C 86 % 977,4 hPa 0,0 l/m 0,0 km/h NW 0,8 C 2,9 C 0,0 km/h
01.12.2014 01:00 2,6 C 86 % 977,1 hPa 0,0 l/m 0,0 km/h N-NW 0,5 C 2,6 C 0,0 km/h
01.12.2014 02:00 2,6 C 86 % 976,7 hPa 0,0 l/m 0,0 km/h N 0,5 C 2,6 C 0,0 km/h
01.12.2014 03:00 2,7 C 85 % 976,0 hPa 0,0 l/m 0,0 km/h N 0,4 C 2,7 C 0,0 km/h
01.12.2014 04:00 2,8 C 85 % 975,9 hPa 0,0 l/m 0,0 km/h N 0,5 C 2,8 C 0,0 km/h
01.12.2014 05:00 2,8 C 85 % 975,6 hPa 0,0 l/m 0,0 km/h N 0,5 C 2,8 C 0,0 km/h
01.12.2014 06:00 2,7 C 85 % 975,3 hPa 0,0 l/m 0,0 km/h N 0,4 C 2,7 C 0,0 km/h
01.12.2014 07:00 2,7 C 85 % 975,4 hPa 0,4 l/m 0,0 km/h N 0,4 C 2,7 C 0,0 km/h
01.12.2014 08:00 2,9 C 84 % 976,1 hPa 0,2 l/m 0,0 km/h W-NW 0,5 C 2,9 C 0,0 km/h
01.12.2014 09:00 3,6 C 84 % 976,0 hPa 0,0 l/m 0,0 km/h W-NW 1,2 C 3,6 C 0,0 km/h
01.12.2014 10:00 4,9 C 84 % 976,0 hPa 0,0 l/m 0,0 km/h W-NW 2,4 C 4,9 C 0,0 km/h
01.12.2014 11:00 5,1 C 86 % 976,0 hPa 0,0 l/m 0,0 km/h W-NW 3,0 C 5,1 C 0,0 km/h
01.12.2014 12:00 5,9 C 87 % 975,9 hPa 0,0 l/m 0,0 km/h O-SO 3,9 C 5,9 C 0,0 km/h
01.12.2014 13:00 5,8 C 87 % 975,5 hPa 0,0 l/m 0,0 km/h N-NO 3,8 C 5,8 C 0,0 km/h
01.12.2014 14:00 5,4 C 87 % 976,0 hPa 0,0 l/m 0,0 km/h N-NO 3,4 C 5,4 C 0,0 km/h
01.12.2014 15:00 4,9 C 87 % 976,4 hPa 0,0 l/m 0,0 km/h N-NO 2,9 C 4,9 C 0,0 km/h
01.12.2014 16:00 4,7 C 87 % 976,8 hPa 0,0 l/m 0,0 km/h N-NO 2,7 C 4,7 C 0,0 km/h
01.12.2014 17:00 4,4 C 87 % 977,3 hPa 0,0 l/m 0,0 km/h N-NO 2,4 C 4,4 C 0,0 km/h
01.12.2014 18:00 4,3 C 87 % 977,9 hPa 0,0 l/m 0,0 km/h N-NO 2,3 C 4,3 C 0,0 km/h
01.12.2014 19:00 4,2 C 88 % 978,0 hPa 0,0 l/m 0,0 km/h N-NO 2,4 C 4,2 C 0,0 km/h
01.12.2014 20:00 4,1 C 87 % 978,1 hPa 0,0 l/m 0,0 km/h N-NO 2,1 C 4,1 C 0,0 km/h
01.12.2014 21:00 4,0 C 87 % 978,5 hPa 0,0 l/m 0,0 km/h N-NO 2,0 C 4,0 C 0,0 km/h
01.12.2014 22:00 3,9 C 87 % 978,7 hPa 0,0 l/m 0,0 km/h N-NO 1,9 C 3,9 C 0,0 km/h
01.12.2014 23:00 3,8 C 87 % 978,8 hPa 0,0 l/m 0,0 km/h N-NO 1,8 C 3,8 C 0,0 km/h
02.12.2014 00:00 3,8 C 87 % 979,0 hPa 0,0 l/m 0,0 km/h N-NO 1,8 C 3,8 C 0,0 km/h
02.12.2014 01:00 3,5 C 86 % 978,8 hPa 0,0 l/m 0,0 km/h W-NW 1,4 C 3,5 C 0,0 km/h
02.12.2014 02:00 3,3 C 86 % 979,1 hPa 0,0 l/m 0,0 km/h W-NW 1,2 C 3,3 C 0,0 km/h
02.12.2014 03:00 3,2 C 85 % 978,9 hPa 0,0 l/m 0,0 km/h W-NW 0,9 C 3,2 C 0,0 km/h
02.12.2014 04:00 3,1 C 85 % 979,2 hPa 0,2 l/m 0,0 km/h W-NW 0,8 C 3,1 C 0,0 km/h
02.12.2014 05:00 3,0 C 84 % 979,1 hPa 0,0 l/m 0,0 km/h W-NW 0,6 C 3,0 C 0,0 km/h
02.12.2014 06:00 3,0 C 84 % 979,4 hPa 0,0 l/m 0,0 km/h W-NW 0,6 C 3,0 C 0,0 km/h
02.12.2014 07:00 3,0 C 83 % 979,7 hPa 0,0 l/m 0,0 km/h W-NW 0,4 C 3,0 C 0,0 km/h
02.12.2014 08:00 2,9 C 83 % 980,1 hPa 0,0 l/m 0,0 km/h W-NW 0,3 C 2,9 C 0,0 km/h
02.12.2014 09:00 3,1 C 82 % 980,4 hPa 0,2 l/m 1,3 km/h W 0,3 C 3,1 C 0,7 km/h
02.12.2014 10:00 3,5 C 82 % 980,5 hPa 0,0 l/m 0,0 km/h W 0,7 C 3,5 C 0,0 km/h
02.12.2014 11:00 3,8 C 81 % 980,3 hPa 0,0 l/m 0,0 km/h W 0,8 C 3,8 C 0,0 km/h
02.12.2014 12:00 3,9 C 81 % 980,0 hPa 0,0 l/m 0,0 km/h W 0,9 C 3,9 C 0,0 km/h
02.12.2014 13:00 3,8 C 82 % 980,3 hPa 0,0 l/m 0,0 km/h W 1,0 C 3,8 C 0,0 km/h
02.12.2014 14:00 3,4 C 83 % 980,4 hPa 0,0 l/m 0,0 km/h W 0,8 C 3,4 C 0,0 km/h
02.12.2014 15:00 3,4 C 83 % 980,6 hPa 0,0 l/m 0,0 km/h W 0,8 C 3,4 C 0,0 km/h
02.12.2014 16:00 3,2 C 83 % 981,1 hPa 0,0 l/m 0,0 km/h W 0,6 C 3,2 C 0,0 km/h
02.12.2014 17:00 2,9 C 83 % 981,6 hPa 0,0 l/m 0,0 km/h W 0,3 C 2,9 C 0,0 km/h
02.12.2014 18:00 2,8 C 83 % 981,9 hPa 0,0 l/m 0,0 km/h W 0,2 C 2,8 C 0,0 km/h
02.12.2014 19:00 2,4 C 82 % 982,3 hPa 0,0 l/m 0,0 km/h W -0,4 C 2,4 C 0,0 km/h
02.12.2014 20:00 2,5 C 82 % 982,7 hPa 0,0 l/m 0,0 km/h W -0,3 C 2,5 C 0,0 km/h
02.12.2014 21:00 2,5 C 81 % 983,0 hPa 0,2 l/m 0,0 km/h W -0,4 C 2,5 C 0,0 km/h
02.12.2014 22:00 2,4 C 81 % 983,4 hPa 0,0 l/m 0,0 km/h W -0,5 C 2,4 C 0,0 km/h
02.12.2014 23:00 2,3 C 81 % 983,8 hPa 0,0 l/m 0,0 km/h W -0,6 C 2,3 C 0,0 km/h
03.12.2014 00:00 2,2 C 81 % 983,7 hPa 0,0 l/m 0,0 km/h W -0,7 C 2,2 C 0,0 km/h
03.12.2014 01:00 2,1 C 80 % 983,8 hPa 0,0 l/m 0,0 km/h W -1,0 C 2,1 C 0,0 km/h
03.12.2014 02:00 2,2 C 80 % 984,1 hPa 0,0 l/m 0,0 km/h W -0,9 C 2,2 C 0,0 km/h
03.12.2014 03:00 2,2 C 80 % 984,4 hPa 0,0 l/m 0,0 km/h W -0,9 C 2,2 C 0,0 km/h
03.12.2014 04:00 2,1 C 80 % 984,7 hPa 0,0 l/m 0,0 km/h W -1,0 C 2,1 C 0,0 km/h
03.12.2014 05:00 1,9 C 80 % 984,7 hPa 0,0 l/m 0,0 km/h W -1,2 C 1,9 C 0,0 km/h
03.12.2014 06:00 1,8 C 80 % 984,9 hPa 0,0 l/m 0,0 km/h W -1,3 C 1,8 C 0,0 km/h
03.12.2014 07:00 1,8 C 80 % 985,4 hPa 0,0 l/m 0,0 km/h W -1,3 C 1,8 C 0,0 km/h
03.12.2014 08:00 1,9 C 79 % 986,0 hPa 0,0 l/m 0,0 km/h W -1,3 C 1,9 C 0,0 km/h
03.12.2014 09:00 2,3 C 79 % 986,2 hPa 0,0 l/m 0,0 km/h W -1,0 C 2,3 C 0,0 km/h
03.12.2014 10:00 2,9 C 80 % 986,6 hPa 0,0 l/m 0,0 km/h W-NW -0,2 C 2,9 C 0,0 km/h
03.12.2014 11:00 3,8 C 82 % 986,6 hPa 0,0 l/m 0,0 km/h W 1,0 C 3,8 C 0,0 km/h
03.12.2014 12:00 3,6 C 85 % 986,3 hPa 0,0 l/m 1,9 km/h W 1,3 C 3,6 C 1,1 km/h
03.12.2014 13:00 3,3 C 86 % 985,8 hPa 0,0 l/m 37,6 km/h W 1,2 C -10,6 C 20,9 km/h
03.12.2014 14:00 2,9 C 86 % 985,8 hPa 0,0 l/m 0,0 km/h W 0,8 C 2,9 C 0,0 km/h
03.12.2014 15:00 2,9 C 86 % 985,9 hPa 0,0 l/m 0,0 km/h W 0,8 C 2,9 C 0,0 km/h
03.12.2014 16:00 2,8 C 85 % 986,1 hPa 0,0 l/m 0,0 km/h W 0,5 C 2,8 C 0,0 km/h
03.12.2014 17:00 2,6 C 85 % 986,1 hPa 0,0 l/m 0,0 km/h W 0,3 C 2,6 C 0,0 km/h
03.12.2014 18:00 2,6 C 85 % 986,3 hPa 0,0 l/m 0,0 km/h W 0,3 C 2,6 C 0,0 km/h
03.12.2014 19:00 2,6 C 84 % 986,2 hPa 0,0 l/m 0,0 km/h W 0,2 C 2,6 C 0,0 km/h
03.12.2014 20:00 2,7 C 84 % 986,1 hPa 0,0 l/m 0,0 km/h W 0,3 C 2,7 C 0,0 km/h
03.12.2014 21:00 2,6 C 84 % 985,8 hPa 0,0 l/m 0,0 km/h W 0,2 C 2,6 C 0,0 km/h
03.12.2014 22:00 2,6 C 83 % 985,9 hPa 0,0 l/m 0,0 km/h W 0,0 C 2,6 C 0,0 km/h
03.12.2014 23:00 2,6 C 83 % 985,8 hPa 0,0 l/m 0,0 km/h W 0,0 C 2,6 C 0,0 km/h
04.12.2014 00:00 2,7 C 83 % 985,7 hPa 0,0 l/m 0,0 km/h W 0,1 C 2,7 C 0,0 km/h
04.12.2014 01:00 2,6 C 82 % 985,4 hPa 0,0 l/m 0,0 km/h W -0,2 C 2,6 C 0,0 km/h
04.12.2014 02:00 2,6 C 82 % 985,1 hPa 0,0 l/m 0,0 km/h W -0,2 C 2,6 C 0,0 km/h
04.12.2014 03:00 2,6 C 82 % 984,9 hPa 0,0 l/m 0,0 km/h W -0,2 C 2,6 C 0,0 km/h
04.12.2014 04:00 2,6 C 82 % 984,6 hPa 0,0 l/m 0,0 km/h W -0,2 C 2,6 C 0,0 km/h
04.12.2014 05:00 2,6 C 81 % 984,5 hPa 0,0 l/m 0,0 km/h W -0,3 C 2,6 C 0,0 km/h
04.12.2014 06:00 2,7 C 81 % 984,2 hPa 0,0 l/m 0,0 km/h W -0,2 C 2,7 C 0,0 km/h
04.12.2014 07:00 2,8 C 81 % 984,3 hPa 0,0 l/m 0,0 km/h W -0,1 C 2,8 C 0,0 km/h
04.12.2014 08:00 2,8 C 81 % 984,6 hPa 0,0 l/m 0,0 km/h W -0,1 C 2,8 C 0,0 km/h
04.12.2014 09:00 3,3 C 81 % 984,6 hPa 0,0 l/m 0,0 km/h W 0,4 C 3,3 C 0,0 km/h
04.12.2014 10:00 4,1 C 82 % 984,8 hPa 0,0 l/m 0,0 km/h W 1,3 C 4,1 C 0,0 km/h
04.12.2014 11:00 4,6 C 85 % 984,8 hPa 0,0 l/m 0,0 km/h W-NW 2,3 C 4,6 C 0,0 km/h
04.12.2014 12:00 5,3 C 87 % 984,3 hPa 0,0 l/m 0,0 km/h W-NW 3,3 C 5,3 C 0,0 km/h
04.12.2014 13:00 5,6 C 88 % 984,3 hPa 0,0 l/m 0,0 km/h W-NW 3,8 C 5,6 C 0,0 km/h
04.12.2014 14:00 5,6 C 86 % 984,3 hPa 0,0 l/m 0,0 km/h O-SO 3,4 C 5,6 C 0,0 km/h
04.12.2014 15:00 5,1 C 86 % 984,4 hPa 0,0 l/m 7,1 km/h SO 3,0 C 4,5 C 4,0 km/h
04.12.2014 16:00 3,9 C 87 % 984,6 hPa 0,0 l/m 0,0 km/h O 1,9 C 3,9 C 0,0 km/h
04.12.2014 17:00 2,2 C 88 % 984,9 hPa 0,0 l/m 0,0 km/h O-SO 0,4 C 2,2 C 0,0 km/h
04.12.2014 18:00 2,1 C 88 % 985,1 hPa 0,0 l/m 0,0 km/h O 0,3 C 2,1 C 0,0 km/h
04.12.2014 19:00 1,6 C 88 % 985,2 hPa 0,0 l/m 0,0 km/h O -0,2 C 1,6 C 0,0 km/h
04.12.2014 20:00 2,4 C 88 % 985,8 hPa 0,0 l/m 0,0 km/h O 0,6 C 2,4 C 0,0 km/h
04.12.2014 21:00 2,9 C 87 % 986,0 hPa 0,0 l/m 0,0 km/h O 1,0 C 2,9 C 0,0 km/h
04.12.2014 22:00 3,1 C 87 % 986,5 hPa 0,0 l/m 0,0 km/h O 1,2 C 3,1 C 0,0 km/h
04.12.2014 23:00 3,2 C 87 % 986,9 hPa 0,0 l/m 0,0 km/h O-NO 1,2 C 3,2 C 0,0 km/h
05.12.2014 00:00 3,3 C 87 % 986,8 hPa 0,0 l/m 0,0 km/h O-NO 1,3 C 3,3 C 0,0 km/h
05.12.2014 01:00 3,1 C 87 % 986,7 hPa 0,0 l/m 0,0 km/h O 1,2 C 3,1 C 0,0 km/h
05.12.2014 02:00 2,9 C 87 % 987,5 hPa 0,0 l/m 0,0 km/h O-SO 1,0 C 2,9 C 0,0 km/h
05.12.2014 03:00 2,9 C 87 % 987,2 hPa 0,0 l/m 0,0 km/h O 1,0 C 2,9 C 0,0 km/h
05.12.2014 04:00 2,6 C 87 % 987,2 hPa 0,0 l/m 0,0 km/h SO 0,7 C 2,6 C 0,0 km/h
05.12.2014 05:00 2,5 C 87 % 987,7 hPa 0,0 l/m 0,0 km/h SO 0,6 C 2,5 C 0,0 km/h
05.12.2014 06:00 2,4 C 87 % 988,1 hPa 0,0 l/m 0,0 km/h SO 0,5 C 2,4 C 0,0 km/h
05.12.2014 07:00 2,3 C 87 % 988,5 hPa 0,0 l/m 1,9 km/h SO 0,4 C 2,3 C 1,1 km/h
05.12.2014 08:00 2,4 C 86 % 988,9 hPa 0,0 l/m 7,8 km/h O-SO 0,3 C 1,1 C 4,3 km/h
05.12.2014 09:00 2,8 C 86 % 989,2 hPa 0,0 l/m 0,0 km/h O-SO 0,7 C 2,8 C 0,0 km/h
05.12.2014 10:00 4,9 C 87 % 989,1 hPa 0,0 l/m 0,0 km/h SO 2,9 C 4,9 C 0,0 km/h
05.12.2014 11:00 4,9 C 88 % 988,9 hPa 0,0 l/m 0,0 km/h O-SO 3,1 C 4,9 C 0,0 km/h
05.12.2014 12:00 5,3 C 87 % 988,8 hPa 0,0 l/m 0,0 km/h NO 3,3 C 5,3 C 0,0 km/h
05.12.2014 13:00 5,1 C 87 % 988,4 hPa 0,0 l/m 0,0 km/h NW 3,1 C 5,1 C 0,0 km/h
05.12.2014 14:00 4,7 C 87 % 988,5 hPa 0,0 l/m 0,0 km/h NW 2,7 C 4,7 C 0,0 km/h
05.12.2014 15:00 4,3 C 88 % 988,7 hPa 0,0 l/m 0,0 km/h NW 2,5 C 4,3 C 0,0 km/h
05.12.2014 16:00 4,1 C 88 % 988,8 hPa 0,0 l/m 0,0 km/h NW 2,3 C 4,1 C 0,0 km/h
05.12.2014 17:00 4,1 C 87 % 989,1 hPa 0,0 l/m 0,0 km/h NW 2,1 C 4,1 C 0,0 km/h
05.12.2014 18:00 3,9 C 87 % 989,3 hPa 0,0 l/m 0,0 km/h NW 1,9 C 3,9 C 0,0 km/h
05.12.2014 19:00 3,9 C 86 % 989,5 hPa 0,0 l/m 0,0 km/h NW 1,8 C 3,9 C 0,0 km/h
05.12.2014 20:00 3,9 C 86 % 989,6 hPa 0,0 l/m 0,0 km/h NW 1,8 C 3,9 C 0,0 km/h
05.12.2014 21:00 4,1 C 86 % 990,0 hPa 0,0 l/m 0,0 km/h NW 2,0 C 4,1 C 0,0 km/h
05.12.2014 22:00 3,9 C 85 % 990,3 hPa 0,0 l/m 0,0 km/h NW 1,6 C 3,9 C 0,0 km/h
05.12.2014 23:00 3,8 C 86 % 990,1 hPa 0,0 l/m 0,0 km/h NW 1,7 C 3,8 C 0,0 km/h
06.12.2014 00:00 3,8 C 85 % 990,2 hPa 0,0 l/m 0,0 km/h NW 1,5 C 3,8 C 0,0 km/h
06.12.2014 01:00 3,8 C 85 % 990,3 hPa 0,0 l/m 0,0 km/h NW 1,5 C 3,8 C 0,0 km/h
06.12.2014 02:00 3,9 C 85 % 990,3 hPa 0,0 l/m 0,0 km/h NW 1,6 C 3,9 C 0,0 km/h
06.12.2014 03:00 3,9 C 85 % 990,1 hPa 0,0 l/m 0,0 km/h NW 1,6 C 3,9 C 0,0 km/h
06.12.2014 04:00 4,1 C 85 % 990,1 hPa 0,0 l/m 0,0 km/h N-NO 1,8 C 4,1 C 0,0 km/h
06.12.2014 05:00 4,1 C 86 % 990,3 hPa 0,0 l/m 0,0 km/h N-NO 2,0 C 4,1 C 0,0 km/h
06.12.2014 06:00 3,3 C 87 % 990,7 hPa 0,0 l/m 0,6 km/h N-NO 1,3 C 3,3 C 0,4 km/h
06.12.2014 07:00 3,1 C 87 % 991,1 hPa 0,0 l/m 0,0 km/h N-NO 1,2 C 3,1 C 0,0 km/h
06.12.2014 08:00 3,2 C 87 % 991,6 hPa 0,2 l/m 0,0 km/h N-NO 1,2 C 3,2 C 0,0 km/h
06.12.2014 09:00 3,4 C 87 % 991,8 hPa 0,0 l/m 0,0 km/h N-NO 1,4 C 3,4 C 0,0 km/h
06.12.2014 10:00 3,8 C 87 % 992,3 hPa 0,0 l/m 0,0 km/h N-NO 1,8 C 3,8 C 0,0 km/h
06.12.2014 11:00 4,2 C 88 % 992,0 hPa 0,0 l/m 9,1 km/h N-NO 2,4 C 1,9 C 5,0 km/h
06.12.2014 12:00 4,4 C 88 % 991,7 hPa 0,0 l/m 0,0 km/h NW 2,6 C 4,4 C 0,0 km/h
06.12.2014 13:00 4,4 C 88 % 991,8 hPa 0,0 l/m 0,0 km/h N-NW 2,6 C 4,4 C 0,0 km/h
06.12.2014 14:00 4,3 C 88 % 991,6 hPa 0,0 l/m 0,0 km/h N-NW 2,5 C 4,3 C 0,0 km/h
06.12.2014 15:00 4,1 C 88 % 991,7 hPa 0,0 l/m 11,0 km/h N-NO 2,3 C 0,4 C 6,1 km/h
06.12.2014 16:00 3,9 C 88 % 992,3 hPa 0,0 l/m 0,0 km/h N 2,1 C 3,9 C 0,0 km/h
06.12.2014 17:00 3,9 C 87 % 992,4 hPa 0,0 l/m 5,2 km/h N-NO 1,9 C 3,9 C 2,9 km/h
06.12.2014 18:00 3,9 C 87 % 992,7 hPa 0,0 l/m 0,0 km/h N-NO 1,9 C 3,9 C 0,0 km/h
06.12.2014 19:00 4,1 C 87 % 992,8 hPa 0,0 l/m 3,6 km/h N-NO 2,1 C 4,1 C 3,6 km/h
06.12.2014 20:00 4,2 C 88 % 992,8 hPa 0,0 l/m 0,0 km/h N-NO 2,4 C 4,2 C 0,0 km/h
06.12.2014 21:00 4,1 C 87 % 993,1 hPa 0,0 l/m 0,0 km/h N-NO 2,1 C 4,1 C 0,0 km/h
06.12.2014 22:00 4,1 C 87 % 993,1 hPa 0,0 l/m 0,0 km/h N-NO 2,1 C 4,1 C 0,0 km/h
06.12.2014 23:00 3,5 C 88 % 993,1 hPa 0,0 l/m 0,0 km/h N-NO 1,7 C 3,5 C 0,0 km/h
07.12.2014 00:00 1,9 C 88 % 993,2 hPa 0,0 l/m 0,0 km/h N-NO 0,1 C 1,9 C 0,0 km/h
07.12.2014 01:00 0,9 C 88 % 993,1 hPa 0,0 l/m 0,0 km/h N-NO -0,9 C 0,9 C 0,0 km/h
07.12.2014 02:00 1,6 C 88 % 992,9 hPa 0,0 l/m 0,0 km/h N-NO -0,2 C 1,6 C 0,0 km/h
07.12.2014 03:00 2,4 C 87 % 992,7 hPa 0,0 l/m 0,0 km/h N-NO 0,5 C 2,4 C 0,0 km/h
07.12.2014 04:00 2,7 C 87 % 992,4 hPa 0,0 l/m 0,0 km/h N-NO 0,8 C 2,7 C 0,0 km/h
07.12.2014 05:00 2,9 C 87 % 992,6 hPa 0,0 l/m 0,0 km/h N-NO 1,0 C 2,9 C 0,0 km/h
07.12.2014 06:00 3,0 C 87 % 993,0 hPa 0,0 l/m 0,0 km/h N-NO 1,1 C 3,0 C 0,0 km/h
07.12.2014 07:00 3,1 C 86 % 993,2 hPa 0,0 l/m 0,0 km/h N-NO 1,0 C 3,1 C 0,0 km/h
07.12.2014 08:00 3,3 C 86 % 993,3 hPa 0,0 l/m 0,0 km/h N-NO 1,2 C 3,3 C 0,0 km/h
07.12.2014 09:00 3,9 C 85 % 993,6 hPa 0,0 l/m 0,0 km/h NW 1,6 C 3,9 C 0,0 km/h
07.12.2014 10:00 4,4 C 85 % 994,0 hPa 0,0 l/m 0,0 km/h W-NW 2,1 C 4,4 C 0,0 km/h
07.12.2014 11:00 4,4 C 87 % 993,9 hPa 0,0 l/m 0,0 km/h NW 2,4 C 4,4 C 0,0 km/h
07.12.2014 12:00 4,4 C 88 % 993,5 hPa 0,0 l/m 0,0 km/h NW 2,6 C 4,4 C 0,0 km/h
07.12.2014 13:00 4,7 C 88 % 993,2 hPa 0,0 l/m 0,0 km/h W-NW 2,9 C 4,7 C 0,0 km/h
07.12.2014 14:00 4,6 C 87 % 993,1 hPa 0,0 l/m 0,0 km/h S 2,6 C 4,6 C 0,0 km/h
07.12.2014 15:00 4,2 C 88 % 993,3 hPa 0,0 l/m 0,0 km/h S-SO 2,4 C 4,2 C 0,0 km/h
07.12.2014 16:00 3,8 C 87 % 993,6 hPa 0,0 l/m 20,1 km/h S-SO 1,8 C -4,8 C 11,2 km/h
07.12.2014 17:00 3,8 C 88 % 993,5 hPa 0,0 l/m 5,2 km/h S-SO 2,0 C 3,8 C 2,9 km/h
07.12.2014 18:00 3,4 C 88 % 993,3 hPa 0,0 l/m 0,0 km/h SW 1,6 C 3,4 C 0,0 km/h
07.12.2014 19:00 3,9 C 88 % 993,5 hPa 0,0 l/m 5,0 km/h W-SW 2,1 C 3,9 C 5,0 km/h
07.12.2014 20:00 3,9 C 87 % 993,5 hPa 0,0 l/m 3,2 km/h W-SW 1,9 C 3,9 C 3,2 km/h
07.12.2014 21:00 3,8 C 86 % 993,3 hPa 0,0 l/m 1,4 km/h S 1,7 C 3,8 C 1,4 km/h
07.12.2014 22:00 4,1 C 84 % 993,1 hPa 0,0 l/m 10,4 km/h S-SW 1,6 C 0,8 C 10,4 km/h
07.12.2014 23:00 4,2 C 84 % 993,0 hPa 0,0 l/m 12,2 km/h SW 1,7 C -0,3 C 12,2 km/h
Min-Datum _ 07.12.14 03.12.14 01.12.14 - 01.12.14 - 03.12.14 03.12.14 01.12.14
_ Min-Zeit 01:53 08:53 06:53 - 00:53 - 08:53 13:53 00:53
Minimum _ 0,9 C 79 % 975,3 hPa - 0,0 km/h - -1,3 C -10,6 C 0,0 km/h
Max-Datum _ 01.12.14 01.12.14 07.12.14 01.12.14 03.12.14 - 01.12.14 01.12.14 03.12.14
_ Max-Zeit 12:53 19:53 10:53 07:53 13:53 - 12:53 12:53 13:53
Maximum _ 5,9 C 88 % 994,0 hPa 0,4 l/m 37,6 km/h
W
- 3,9 C 5,9 C 20,9 km/h
W
Durchschnitt _ 3,4 C 85 % 985,9 hPa #1,4 l/m 0,9 km/h W 1,2 C 3,2 C 0,6 km/h
www.sexauwetter.de